Time;durP1;ratioP1;P1;durP2;ratioP2;P2;SDS_P1;SDS_P2;PMS_P1;PMS_P2;Temp;Humidity;BMP_temperature;BMP_pressure;BME280_temperature;BME280_humidity;BME280_pressure;Samples;Min_cycle;Max_cycle;Signal;HPM_P1;HPM_P2
2023/01/18 00:01:43;;;;;;;43.90;25.20;;;;;;;0.84;89.75;98385.20;108588;1258;37380;-72
2023/01/18 00:04:14;;;;;;;39.40;26.10;;;;;;;0.84;89.61;98384.84;108471;1258;36406;-73
2023/01/18 00:06:47;;;;;;;39.60;24.00;;;;;;;0.83;89.71;98388.64;108542;1258;37582;-74
2023/01/18 00:09:19;;;;;;;41.40;25.80;;;;;;;0.84;89.68;98381.75;108436;1254;173083;-73
2023/01/18 00:11:50;;;;;;;39.50;25.20;;;;;;;0.87;89.76;98376.86;108444;1272;175244;-73
2023/01/18 00:14:21;;;;;;;43.80;25.90;;;;;;;0.88;89.42;98376.13;108519;1257;37104;-74
2023/01/18 00:16:56;;;;;;;44.50;25.90;;;;;;;0.87;89.21;98377.89;108523;1277;36162;-72
2023/01/18 00:19:33;;;;;;;45.90;28.60;;;;;;;0.86;89.29;98374.48;108533;1262;36663;-74
2023/01/18 00:22:04;;;;;;;41.10;26.00;;;;;;;0.86;89.20;98376.89;108590;1277;37069;-74
2023/01/18 00:24:35;;;;;;;42.20;24.90;;;;;;;0.81;89.00;98374.80;108607;1255;37590;-73
2023/01/18 00:27:09;;;;;;;38.50;25.10;;;;;;;0.79;88.84;98373.16;108553;1277;37135;-73
2023/01/18 00:29:40;;;;;;;38.10;25.80;;;;;;;0.79;88.98;98373.16;108581;1277;37085;-73
2023/01/18 00:32:15;;;;;;;41.90;26.10;;;;;;;0.81;89.05;98366.05;108624;1277;38005;-73
2023/01/18 00:34:48;;;;;;;45.80;28.10;;;;;;;0.81;89.01;98360.56;108490;1264;37210;-73
2023/01/18 00:37:24;;;;;;;43.30;27.40;;;;;;;0.79;88.78;98358.23;108518;1256;37242;-72
2023/01/18 00:39:58;;;;;;;45.60;26.60;;;;;;;0.77;88.89;98357.06;108441;1257;175216;-72
2023/01/18 00:45:22;;;;;;;39.50;25.50;;;;;;;0.78;88.96;98353.27;108630;1256;37459;-74
2023/01/18 00:47:53;;;;;;;42.50;27.10;;;;;;;0.80;88.97;98348.59;108651;1277;37015;-75
2023/01/18 00:50:25;;;;;;;51.80;29.70;;;;;;;0.84;89.16;98351.22;108496;1258;175348;-72
2023/01/18 00:52:59;;;;;;;52.60;30.80;;;;;;;0.88;89.46;98348.50;108542;1277;36167;-72
2023/01/18 00:55:31;;;;;;;50.20;29.40;;;;;;;0.92;89.70;98347.69;108488;1256;36969;-73
2023/01/18 00:58:02;;;;;;;51.00;30.50;;;;;;;0.96;89.68;98344.65;108571;1258;37095;-72
2023/01/18 01:00:33;;;;;;;50.10;30.20;;;;;;;1.00;89.78;98341.60;108545;1254;36130;-72
2023/01/18 01:03:04;;;;;;;47.50;29.60;;;;;;;1.06;90.03;98334.73;108518;1254;36140;-72
2023/01/18 01:08:24;;;;;;;50.40;31.30;;;;;;;1.15;89.94;98319.81;108668;1261;36720;-73
2023/01/18 01:11:05;;;;;;;48.70;29.60;;;;;;;1.18;89.93;98320.23;108578;1255;36100;-74
2023/01/18 01:27:42;;;;;;;43.50;27.00;;;;;;;1.36;90.31;98304.51;108462;1278;37186;-73
2023/01/18 01:30:16;;;;;;;41.40;26.10;;;;;;;1.38;90.31;98302.05;108323;1259;37194;-73
2023/01/18 01:32:50;;;;;;;40.50;26.20;;;;;;;1.40;90.40;98300.43;108105;1257;175199;-73
2023/01/18 01:35:21;;;;;;;40.20;26.00;;;;;;;1.42;90.33;98307.22;108481;1278;37935;-74
2023/01/18 01:37:54;;;;;;;45.50;28.60;;;;;;;1.43;90.51;98306.70;108600;1278;37068;-74
2023/01/18 01:40:28;;;;;;;48.90;28.50;;;;;;;1.41;90.37;98298.85;108565;1271;37125;-72
2023/01/18 01:42:59;;;;;;;42.40;26.50;;;;;;;1.42;90.45;98298.13;108336;1261;174897;-72
2023/01/18 01:45:33;;;;;;;45.00;25.90;;;;;;;1.42;90.37;98300.35;108479;1259;37159;-72
2023/01/18 01:48:05;;;;;;;43.10;26.80;;;;;;;1.42;90.37;98299.50;108405;1260;37260;-72
2023/01/18 01:50:40;;;;;;;42.10;24.90;;;;;;;1.44;90.53;98302.70;108449;1264;37000;-73
2023/01/18 01:53:11;;;;;;;41.80;25.30;;;;;;;1.46;90.46;98302.10;108444;1278;36544;-72
2023/01/18 01:55:42;;;;;;;42.90;27.70;;;;;;;1.49;90.59;98309.73;108465;1261;37271;-72
2023/01/18 01:58:15;;;;;;;50.30;30.80;;;;;;;1.54;90.66;98308.53;108406;1278;36955;-73
2023/01/18 02:00:49;;;;;;;50.60;31.10;;;;;;;1.55;90.49;98302.64;108455;1278;37094;-73
2023/01/18 02:03:24;;;;;;;51.60;32.20;;;;;;;1.58;90.54;98298.27;108409;1261;37125;-73
2023/01/18 02:05:59;;;;;;;53.30;31.70;;;;;;;1.59;90.38;98295.84;108424;1278;36080;-73
2023/01/18 02:08:30;;;;;;;51.50;31.40;;;;;;;1.58;90.22;98295.35;108426;1278;37311;-73
2023/01/18 02:11:01;;;;;;;57.10;34.80;;;;;;;1.58;90.15;98297.76;108168;1260;175222;-73
2023/01/18 02:13:33;;;;;;;53.30;34.10;;;;;;;1.62;90.34;98297.63;108305;1278;173045;-73
2023/01/18 02:16:10;;;;;;;54.80;35.00;;;;;;;1.65;90.34;98306.10;108323;1261;37183;-71
2023/01/18 02:18:54;;;;;;;53.60;33.60;;;;;;;1.64;90.25;98311.13;108446;1260;37110;-72
2023/01/18 02:21:27;;;;;;;52.70;32.50;;;;;;;1.62;90.25;98308.95;108389;1259;38554;-75
2023/01/18 02:24:44;;;;;;;61.90;34.70;;;;;;;1.65;90.24;98308.34;108455;1258;37055;-75
2023/01/18 02:27:22;;;;;;;57.30;35.40;;;;;;;1.65;90.19;98302.32;108473;1258;37756;-74
2023/01/18 02:30:06;;;;;;;57.70;35.60;;;;;;;1.68;90.42;98308.39;108495;1261;37119;-73
2023/01/18 02:33:06;;;;;;;51.80;31.50;;;;;;;1.69;90.26;98307.86;108423;1264;38723;-74
2023/01/18 02:35:45;;;;;;;49.20;30.60;;;;;;;1.65;90.17;98307.30;108460;1259;37029;-74
2023/01/18 02:38:18;;;;;;;47.30;30.30;;;;;;;1.66;90.07;98302.64;108446;1278;37317;-74
2023/01/18 02:41:03;;;;;;;50.30;30.40;;;;;;;1.65;89.93;98302.51;108469;1260;36752;-72
2023/01/18 02:46:33;;;;;;;50.40;29.50;;;;;;;1.68;90.00;98299.46;108474;1254;37709;-74
2023/01/18 02:49:09;;;;;;;47.40;29.80;;;;;;;1.65;89.96;98303.86;108443;1278;36986;-74
2023/01/18 02:51:40;;;;;;;43.00;26.40;;;;;;;1.62;90.05;98306.20;108344;1270;37039;-73
2023/01/18 02:54:22;;;;;;;44.00;26.90;;;;;;;1.61;90.10;98305.05;108394;1267;37194;-72
2023/01/18 02:56:55;;;;;;;41.80;25.80;;;;;;;1.57;90.18;98306.19;108461;1260;36981;-72
2023/01/18 02:59:32;;;;;;;42.20;25.90;;;;;;;1.57;90.40;98306.36;108438;1255;37348;-72
2023/01/18 03:02:07;;;;;;;40.70;23.90;;;;;;;1.59;90.50;98298.59;108351;1255;175158;-74
2023/01/18 03:04:40;;;;;;;40.60;24.80;;;;;;;1.59;90.49;98292.92;108460;1256;37165;-73
2023/01/18 03:07:13;;;;;;;36.20;23.10;;;;;;;1.61;90.62;98289.05;108426;1278;36060;-72
2023/01/18 03:09:45;;;;;;;41.70;24.10;;;;;;;1.62;90.52;98288.66;108462;1269;37022;-72
2023/01/18 03:12:20;;;;;;;36.70;23.60;;;;;;;1.65;90.74;98286.33;108452;1270;37247;-71
2023/01/18 03:14:56;;;;;;;37.80;23.30;;;;;;;1.65;90.60;98286.15;108453;1278;36383;-73
2023/01/18 03:17:35;;;;;;;36.40;23.20;;;;;;;1.64;90.56;98282.79;108293;1260;37183;-74
2023/01/18 03:20:13;;;;;;;33.20;21.40;;;;;;;1.65;90.57;98276.20;108452;1261;38584;-73
2023/01/18 03:25:40;;;;;;;31.60;21.30;;;;;;;1.67;90.56;98271.13;108390;1262;37179;-73
2023/01/18 03:34:03;;;;;;;35.70;22.20;;;;;;;1.70;90.62;98256.08;108411;1278;37052;-72
2023/01/18 03:36:38;;;;;;;32.80;20.80;;;;;;;1.68;90.48;98251.34;108263;1260;36285;-74
2023/01/18 03:39:17;;;;;;;35.70;20.90;;;;;;;1.67;90.58;98242.95;108420;1278;37192;-74
2023/01/18 03:41:53;;;;;;;32.50;21.70;;;;;;;1.70;90.64;98233.39;108510;1277;36998;-75
2023/01/18 03:44:33;;;;;;;38.90;25.10;;;;;;;1.73;90.62;98228.61;108590;1278;37307;-74
2023/01/18 03:47:05;;;;;;;58.90;34.20;;;;;;;1.74;90.63;98220.70;108515;1261;36446;-73
2023/01/18 03:49:36;;;;;;;65.10;36.10;;;;;;;1.74;90.66;98218.63;108533;1278;37070;-75
2023/01/18 03:52:18;;;;;;;62.40;33.60;;;;;;;1.75;90.53;98211.36;108495;1261;36910;-74
2023/01/18 03:54:59;;;;;;;50.70;30.20;;;;;;;1.75;90.38;98205.89;108502;1278;37628;-74
2023/01/18 03:57:34;;;;;;;40.00;24.10;;;;;;;1.75;90.40;98193.52;108491;1255;37228;-74
2023/01/18 04:00:08;;;;;;;39.20;24.20;;;;;;;1.76;90.39;98187.77;108506;1267;37018;-75
2023/01/18 04:02:39;;;;;;;39.80;23.90;;;;;;;1.76;90.48;98183.48;108490;1260;36580;-74
2023/01/18 04:05:11;;;;;;;37.00;22.80;;;;;;;1.73;90.20;98179.80;108607;1255;37299;-73
2023/01/18 04:07:42;;;;;;;38.80;23.10;;;;;;;1.72;90.44;98171.60;108603;1260;36997;-73
2023/01/18 04:10:14;;;;;;;36.70;22.00;;;;;;;1.72;90.60;98163.90;108635;1261;38285;-74
2023/01/18 04:12:50;;;;;;;36.30;20.70;;;;;;;1.73;90.68;98153.89;108550;1260;36709;-72
2023/01/18 04:15:21;;;;;;;37.20;22.10;;;;;;;1.75;90.55;98149.50;108701;1262;36371;-75
2023/01/18 04:17:54;;;;;;;38.20;23.10;;;;;;;1.79;90.77;98147.11;108548;1261;38764;-74
2023/01/18 04:20:25;;;;;;;39.00;23.80;;;;;;;1.79;90.55;98149.70;108463;1255;36409;-74
2023/01/18 04:22:58;;;;;;;40.20;23.10;;;;;;;1.78;90.50;98154.38;108452;1267;36110;-73
2023/01/18 04:25:29;;;;;;;36.70;22.30;;;;;;;1.79;90.56;98153.48;108455;1261;36675;-73
2023/01/18 04:28:02;;;;;;;37.00;22.70;;;;;;;1.80;90.55;98143.13;108405;1261;36197;-73
2023/01/18 04:30:34;;;;;;;35.10;22.60;;;;;;;1.80;90.35;98147.08;108294;1278;174855;-72
2023/01/18 04:33:08;;;;;;;38.10;24.50;;;;;;;1.80;90.48;98150.48;108410;1255;37030;-72
2023/01/18 04:35:40;;;;;;;43.80;26.00;;;;;;;1.82;90.73;98151.81;108449;1278;37107;-73
2023/01/18 04:38:12;;;;;;;46.80;27.10;;;;;;;1.84;90.77;98154.70;108413;1270;36185;-73
2023/01/18 04:40:46;;;;;;;45.30;26.20;;;;;;;1.86;91.02;98160.63;108272;1261;37075;-73
2023/01/18 04:43:22;;;;;;;44.90;26.00;;;;;;;1.85;90.89;98155.50;108308;1271;37085;-72
2023/01/18 04:45:57;;;;;;;39.80;24.40;;;;;;;1.87;91.01;98153.86;108477;1256;37078;-72
2023/01/18 04:48:31;;;;;;;41.70;23.90;;;;;;;1.88;91.12;98158.11;108439;1261;36581;-73
2023/01/18 04:51:02;;;;;;;42.10;24.50;;;;;;;1.88;90.93;98155.70;108469;1256;36777;-74
2023/01/18 04:53:35;;;;;;;47.90;26.80;;;;;;;1.91;91.13;98151.80;108333;1267;174900;-74
2023/01/18 04:56:06;;;;;;;46.20;27.10;;;;;;;1.98;91.19;98146.73;108465;1267;37176;-74
2023/01/18 04:58:37;;;;;;;51.30;29.30;;;;;;;2.03;91.20;98146.02;108437;1261;37327;-74
2023/01/18 05:01:11;;;;;;;53.20;29.10;;;;;;;2.06;91.19;98146.58;108500;1261;36622;-73
2023/01/18 05:03:42;;;;;;;53.70;29.00;;;;;;;2.07;91.11;98148.27;108487;1278;36120;-74
2023/01/18 05:06:14;;;;;;;62.70;30.60;;;;;;;2.07;91.03;98152.06;108468;1261;37026;-74
2023/01/18 05:08:45;;;;;;;67.50;32.10;;;;;;;2.06;90.90;98151.52;107563;1269;915487;-75
2023/01/18 05:11:19;;;;;;;69.30;34.30;;;;;;;2.11;90.96;98148.95;108395;1255;37086;-72
2023/01/18 05:13:51;;;;;;;64.50;32.80;;;;;;;2.16;91.22;98152.36;108384;1278;36062;-72
2023/01/18 05:16:23;;;;;;;60.00;30.20;;;;;;;2.19;91.20;98154.84;108466;1260;37661;-74
2023/01/18 05:18:55;;;;;;;57.40;28.80;;;;;;;2.20;91.06;98154.31;108506;1271;37058;-74
2023/01/18 05:21:27;;;;;;;46.40;25.00;;;;;;;2.19;90.90;98153.46;108516;1278;36495;-74
2023/01/18 05:23:58;;;;;;;43.60;23.10;;;;;;;2.21;91.05;98147.88;108497;1261;37344;-73
2023/01/18 05:26:29;;;;;;;43.40;23.90;;;;;;;2.24;91.08;98142.61;108636;1260;37003;-74
2023/01/18 05:29:03;;;;;;;45.10;24.80;;;;;;;2.28;90.96;98141.77;108624;1260;36314;-74
2023/01/18 05:31:36;;;;;;;48.70;25.70;;;;;;;2.28;90.97;98142.62;108427;1267;37185;-75
2023/01/18 05:34:07;;;;;;;46.60;25.60;;;;;;;2.28;91.01;98142.95;108434;1259;37757;-74
2023/01/18 05:36:41;;;;;;;46.10;24.40;;;;;;;2.26;90.95;98141.81;108546;1260;37446;-73
2023/01/18 05:39:15;;;;;;;42.30;23.20;;;;;;;2.27;90.95;98139.73;108449;1255;37278;-73
2023/01/18 05:41:46;;;;;;;40.80;23.70;;;;;;;2.27;90.94;98136.45;108412;1261;37280;-73
2023/01/18 05:44:17;;;;;;;43.80;23.90;;;;;;;2.29;91.05;98130.16;108368;1255;38379;-72
2023/01/18 05:46:48;;;;;;;45.30;25.90;;;;;;;2.29;90.96;98122.96;108419;1260;37334;-73
2023/01/18 05:49:19;;;;;;;48.60;25.20;;;;;;;2.30;91.15;98108.82;108414;1267;36027;-72
2023/01/18 05:51:51;;;;;;;48.90;26.60;;;;;;;2.30;91.03;98104.16;108309;1258;174885;-72
2023/01/18 05:54:26;;;;;;;46.80;24.80;;;;;;;2.30;91.06;98102.41;108411;1261;36946;-72
2023/01/18 05:56:58;;;;;;;45.10;25.20;;;;;;;2.31;91.09;98093.61;108411;1260;37214;-73
2023/01/18 05:59:31;;;;;;;43.00;24.70;;;;;;;2.33;91.16;98084.61;108321;1261;173006;-73
2023/01/18 06:02:05;;;;;;;47.20;25.00;;;;;;;2.31;91.04;98076.77;108405;1261;37285;-74
2023/01/18 06:04:39;;;;;;;39.00;21.90;;;;;;;2.28;91.06;98072.41;108455;1271;37609;-72
2023/01/18 06:07:10;;;;;;;43.70;23.80;;;;;;;2.26;91.12;98064.77;108423;1278;37086;-74
2023/01/18 06:09:40;;;;;;;40.40;21.50;;;;;;;2.24;91.24;98058.84;108482;1266;36962;-73
2023/01/18 06:12:16;;;;;;;38.70;23.00;;;;;;;2.21;91.33;98055.69;108516;1278;37200;-73
2023/01/18 06:14:48;;;;;;;43.10;24.10;;;;;;;2.22;91.34;98051.70;108564;1278;37223;-70
2023/01/18 06:17:19;;;;;;;43.30;23.30;;;;;;;2.24;91.58;98052.11;108485;1261;37278;-73
2023/01/18 06:19:50;;;;;;;41.50;21.30;;;;;;;2.23;91.39;98052.84;108444;1261;37473;-73
2023/01/18 06:22:23;;;;;;;38.30;19.80;;;;;;;2.24;91.49;98042.48;108436;1278;37246;-72
2023/01/18 06:24:54;;;;;;;37.50;20.70;;;;;;;2.29;91.70;98038.64;108466;1273;37224;-72
2023/01/18 06:27:28;;;;;;;41.70;22.30;;;;;;;2.33;91.74;98032.30;108438;1278;38577;-73
2023/01/18 06:30:03;;;;;;;46.80;22.90;;;;;;;2.34;91.73;98025.02;108419;1259;37556;-72
2023/01/18 06:32:35;;;;;;;41.90;22.90;;;;;;;2.35;91.62;98017.77;108454;1278;37067;-73
2023/01/18 06:35:10;;;;;;;45.50;21.90;;;;;;;2.34;91.50;98008.70;108466;1267;36327;-72
2023/01/18 06:37:41;;;;;;;34.50;18.90;;;;;;;2.33;91.62;97992.39;108407;1260;37558;-72
2023/01/18 06:40:13;;;;;;;32.10;17.30;;;;;;;2.31;91.48;97982.34;108445;1261;36082;-73
2023/01/18 06:42:46;;;;;;;32.30;17.40;;;;;;;2.28;91.43;97981.09;108453;1268;37302;-73
2023/01/18 06:45:21;;;;;;;38.70;16.90;;;;;;;2.28;91.66;97979.89;108344;1261;37101;-72
2023/01/18 06:47:56;;;;;;;36.10;16.50;;;;;;;2.28;91.54;97988.11;108437;1258;36389;-73
2023/01/18 06:50:27;;;;;;;41.20;17.90;;;;;;;2.28;91.69;98017.71;108432;1278;37205;-73
2023/01/18 06:52:58;;;;;;;70.10;21.50;;;;;;;2.29;91.55;98041.59;108479;1278;37046;-73
2023/01/18 06:55:29;;;;;;;127.10;26.60;;;;;;;2.32;91.80;98047.66;108480;1278;37195;-72
2023/01/18 06:58:01;;;;;;;62.10;18.30;;;;;;;2.34;91.84;98041.57;108326;1258;37278;-71
2023/01/18 07:00:32;;;;;;;101.00;23.20;;;;;;;2.33;91.61;98031.80;108414;1278;37601;-73
2023/01/18 07:03:04;;;;;;;130.80;27.90;;;;;;;2.35;91.66;98023.45;108429;1278;37186;-73
2023/01/18 07:05:38;;;;;;;88.30;21.80;;;;;;;2.38;91.77;98017.65;108480;1261;36174;-74
2023/01/18 07:08:09;;;;;;;79.20;19.30;;;;;;;2.39;91.75;98002.98;108412;1256;36032;-73
2023/01/18 07:10:41;;;;;;;75.50;18.70;;;;;;;2.38;91.62;97995.27;108440;1261;37154;-74
2023/01/18 07:13:12;;;;;;;39.60;12.80;;;;;;;2.36;91.67;97986.42;108427;1255;37212;-72
2023/01/18 07:15:43;;;;;;;46.90;14.80;;;;;;;2.37;91.65;97986.91;108456;1259;39220;-74
2023/01/18 07:18:17;;;;;;;37.70;14.80;;;;;;;2.36;91.83;97987.10;108401;1278;37122;-74
2023/01/18 07:20:56;;;;;;;52.40;17.30;;;;;;;2.36;91.72;97995.55;108346;1278;36272;-71
2023/01/18 07:23:26;;;;;;;41.80;15.30;;;;;;;2.36;91.85;98008.78;108419;1267;37055;-71
2023/01/18 07:26:02;;;;;;;28.60;12.30;;;;;;;2.36;91.93;98022.52;108424;1278;37331;-73
2023/01/18 07:28:33;;;;;;;24.30;12.30;;;;;;;2.37;92.01;98029.56;108368;1261;38977;-73
2023/01/18 07:31:06;;;;;;;31.30;12.60;;;;;;;2.38;92.01;98034.67;108424;1261;37554;-72
2023/01/18 07:33:40;;;;;;;25.10;12.50;;;;;;;2.40;92.10;98041.10;108415;1256;36985;-73
2023/01/18 07:36:12;;;;;;;30.60;13.20;;;;;;;2.44;92.01;98040.96;108421;1273;37290;-74
2023/01/18 07:38:47;;;;;;;41.90;14.10;;;;;;;2.44;91.84;98035.64;108442;1278;37328;-74
2023/01/18 07:41:19;;;;;;;82.00;18.70;;;;;;;2.47;91.95;98026.05;108126;1271;431962;-74
2023/01/18 07:43:50;;;;;;;134.40;25.30;;;;;;;2.49;91.82;98023.33;108443;1261;36723;-75
2023/01/18 07:46:28;;;;;;;98.20;17.90;;;;;;;2.54;92.10;98015.23;108484;1278;37136;-74
2023/01/18 07:49:07;;;;;;;147.00;28.30;;;;;;;2.58;91.82;98006.24;108472;1260;37290;-73
2023/01/18 07:51:38;;;;;;;90.20;19.90;;;;;;;2.60;91.62;98008.80;108483;1256;39202;-74
2023/01/18 07:54:09;;;;;;;125.00;24.20;;;;;;;2.58;91.65;98010.55;108442;1256;37218;-74
2023/01/18 07:56:42;;;;;;;88.90;18.00;;;;;;;2.60;91.78;98013.58;108465;1261;37122;-72
2023/01/18 07:59:12;;;;;;;24.80;9.40;;;;;;;2.62;91.76;98014.38;108406;1262;37033;-72
2023/01/18 08:01:43;;;;;;;57.10;15.50;;;;;;;2.60;91.50;98024.27;108359;1256;175155;-74
2023/01/18 08:04:17;;;;;;;60.90;15.30;;;;;;;2.57;91.31;98023.89;108441;1261;37466;-70
2023/01/18 08:06:50;;;;;;;102.20;19.40;;;;;;;2.55;91.35;98016.89;108576;1262;37158;-75
2023/01/18 08:09:21;;;;;;;77.50;15.80;;;;;;;2.57;91.32;98007.02;108485;1278;36671;-76
2023/01/18 08:11:55;;;;;;;43.50;12.30;;;;;;;2.57;91.47;98004.42;108415;1275;37138;-75
2023/01/18 08:14:31;;;;;;;29.40;10.10;;;;;;;2.57;91.46;97994.28;108391;1262;36725;-75
2023/01/18 08:17:02;;;;;;;33.30;11.80;;;;;;;2.61;91.41;97983.27;108390;1278;37049;-73
2023/01/18 08:19:33;;;;;;;44.60;12.50;;;;;;;2.62;91.57;97987.35;108421;1260;37270;-72
2023/01/18 08:22:04;;;;;;;55.50;18.00;;;;;;;2.63;91.63;97994.73;108450;1262;37069;-74
2023/01/18 08:24:36;;;;;;;45.30;17.20;;;;;;;2.61;91.58;97998.24;108445;1278;38528;-72
2023/01/18 08:27:09;;;;;;;78.50;18.20;;;;;;;2.64;91.67;97991.25;108396;1261;37070;-71
2023/01/18 08:29:41;;;;;;;123.80;23.20;;;;;;;2.67;91.85;97982.98;108433;1261;37095;-73
2023/01/18 08:32:14;;;;;;;128.00;26.00;;;;;;;2.71;91.65;97976.62;107818;1264;914143;-73
2023/01/18 08:34:45;;;;;;;96.50;20.60;;;;;;;2.74;91.75;97971.98;108476;1261;37344;-74
2023/01/18 08:37:19;;;;;;;145.20;26.10;;;;;;;2.71;91.47;97968.86;108470;1256;36975;-74
2023/01/18 08:39:53;;;;;;;69.20;17.90;;;;;;;2.69;91.48;97958.95;108502;1267;36958;-73
2023/01/18 08:42:32;;;;;;;96.90;20.00;;;;;;;2.73;91.78;97948.11;108554;1260;37276;-71
2023/01/18 08:45:08;;;;;;;46.70;13.20;;;;;;;2.77;91.68;97940.52;108474;1261;36480;-74
2023/01/18 08:47:41;;;;;;;20.10;9.90;;;;;;;2.78;91.54;97944.61;108485;1279;36989;-75
2023/01/18 08:50:12;;;;;;;51.10;13.30;;;;;;;2.81;91.63;97955.87;108515;1256;38186;-73
2023/01/18 08:52:47;;;;;;;155.10;26.10;;;;;;;2.83;91.43;97970.92;108491;1261;36630;-72
2023/01/18 08:55:20;;;;;;;45.10;12.00;;;;;;;2.78;91.28;97973.55;108481;1269;36423;-75
2023/01/18 08:57:54;;;;;;;67.80;13.90;;;;;;;2.75;91.34;97968.17;108476;1278;36119;-73
2023/01/18 09:00:27;;;;;;;16.20;8.10;;;;;;;2.74;91.31;97965.10;108468;1278;36097;-74
2023/01/18 09:03:01;;;;;;;56.20;11.80;;;;;;;2.78;91.45;97965.80;108481;1261;37114;-73
2023/01/18 09:05:35;;;;;;;27.20;8.30;;;;;;;2.80;91.24;97980.52;108525;1275;37336;-72
2023/01/18 09:08:07;;;;;;;49.60;12.20;;;;;;;2.82;91.42;97978.21;108414;1262;36794;-71
2023/01/18 09:10:38;;;;;;;57.10;13.30;;;;;;;2.84;91.41;97972.03;108432;1261;37247;-74
2023/01/18 09:13:12;;;;;;;129.90;20.30;;;;;;;2.86;91.34;97976.13;108505;1271;36480;-75
2023/01/18 09:15:45;;;;;;;171.10;25.10;;;;;;;2.86;91.39;97968.57;108490;1256;37080;-73
2023/01/18 09:18:20;;;;;;;84.90;15.10;;;;;;;2.84;91.21;97969.34;108519;1259;36973;-74
2023/01/18 09:20:54;;;;;;;88.30;16.80;;;;;;;2.83;91.01;97964.35;108452;1260;36293;-72
2023/01/18 09:23:26;;;;;;;90.60;16.60;;;;;;;2.83;91.23;97960.58;108415;1269;36973;-72
2023/01/18 09:26:05;;;;;;;71.90;13.20;;;;;;;2.83;91.39;97948.18;108448;1255;37333;-72
2023/01/18 09:28:39;;;;;;;73.10;13.30;;;;;;;2.86;91.60;97938.93;108406;1261;37156;-74
2023/01/18 09:31:11;;;;;;;110.90;18.90;;;;;;;2.89;91.54;97936.73;108442;1261;37125;-72
2023/01/18 09:33:42;;;;;;;51.90;10.60;;;;;;;2.91;91.38;97934.23;108392;1261;37271;-73
2023/01/18 09:36:17;;;;;;;98.20;17.80;;;;;;;2.93;91.35;97929.29;108428;1263;37414;-73
2023/01/18 09:38:51;;;;;;;81.70;14.10;;;;;;;2.96;91.45;97920.55;108394;1261;36716;-73
2023/01/18 09:41:31;;;;;;;135.30;22.10;;;;;;;2.96;91.27;97912.13;108423;1256;37044;-73
2023/01/18 09:44:06;;;;;;;37.10;8.70;;;;;;;2.99;91.45;97894.08;108396;1261;37413;-73
2023/01/18 09:46:40;;;;;;;75.50;13.10;;;;;;;2.99;91.28;97888.55;108412;1278;37043;-70
2023/01/18 09:49:16;;;;;;;74.40;13.50;;;;;;;2.99;91.31;97892.34;108285;1262;36855;-72
2023/01/18 09:51:56;;;;;;;18.30;6.80;;;;;;;2.99;91.30;97897.35;107789;1278;912074;-74
2023/01/18 09:54:38;;;;;;;10.30;6.20;;;;;;;2.99;91.20;97902.17;108410;1261;37190;-73
2023/01/18 09:57:18;;;;;;;20.60;6.90;;;;;;;2.96;91.11;97885.23;108239;1264;36739;-75
2023/01/18 10:00:00;;;;;;;;;;;;;;;2.97;91.10;97889.36;108352;1278;175135;-72
2023/01/18 10:02:37;;;;;;;;;;;;;;;2.92;91.18;97899.40;108469;1278;37265;-72
2023/01/18 10:05:11;;;;;;;;;;;;;;;2.87;91.20;97905.31;108445;1261;37220;-74
2023/01/18 10:08:01;;;;;;;;;;;;;;;2.87;91.52;97908.61;108446;1260;38545;-73
2023/01/18 10:10:37;;;;;;;;;;;;;;;2.85;91.39;97910.37;108445;1256;37051;-73
2023/01/18 10:13:36;;;;;;;;;;;;;;;2.86;91.64;97908.11;108427;1261;37002;-72
2023/01/18 10:16:09;;;;;;;;;;;;;;;2.90;91.69;97889.49;108506;1269;38404;-73
2023/01/18 10:18:44;;;;;;;;;;;;;;;2.92;91.78;97881.99;108449;1274;36980;-72
2023/01/18 10:21:24;;;;;;;;;;;;;;;2.95;91.97;97880.46;108448;1261;37370;-75
2023/01/18 10:24:04;;;;;;;;;;;;;;;2.98;92.03;97891.18;108303;1265;174941;-74
2023/01/18 10:26:34;;;;;;;;;;;;;;;2.95;91.81;97901.33;108461;1269;37251;-75
2023/01/18 10:29:11;;;;;;;;;;;;;;;2.89;91.62;97897.47;108372;1268;37486;-75
2023/01/18 10:31:46;;;;;;;;;;;;;;;2.85;91.86;97893.17;108462;1256;37813;-73
2023/01/18 10:34:20;;;;;;;;;;;;;;;2.86;92.05;97895.55;108456;1261;37978;-72
2023/01/18 10:36:54;;;;;;;;;;;;;;;2.86;91.91;97892.43;108401;1261;37038;-74
2023/01/18 10:39:33;;;;;;;5.30;4.00;;;;;;;2.90;92.09;97879.02;108297;1258;175147;-74
2023/01/18 10:42:17;;;;;;;5.40;4.00;;;;;;;2.95;92.31;97874.09;108398;1261;37309;-73
2023/01/18 10:44:51;;;;;;;6.50;4.30;;;;;;;2.96;92.02;97861.32;108394;1273;37289;-73
2023/01/18 10:47:25;;;;;;;6.00;4.90;;;;;;;2.97;91.90;97853.36;108338;1258;175099;-73
2023/01/18 10:49:59;;;;;;;7.70;5.30;;;;;;;3.00;92.19;97852.85;108379;1278;37592;-75
2023/01/18 10:52:31;;;;;;;4.40;3.60;;;;;;;3.03;91.91;97863.23;106169;1278;3012837;-75
2023/01/18 10:55:06;;;;;;;5.00;3.60;;;;;;;3.02;91.66;97875.15;108443;1278;36742;-74
2023/01/18 10:57:43;;;;;;;4.10;3.60;;;;;;;3.04;91.93;97873.65;108242;1261;37067;-74
2023/01/18 11:00:29;;;;;;;5.80;4.40;;;;;;;3.10;91.96;97868.56;108273;1271;37177;-75
2023/01/18 11:03:01;;;;;;;8.40;4.00;;;;;;;3.13;91.75;97858.77;108396;1278;36996;-75
2023/01/18 11:05:39;;;;;;;15.10;5.70;;;;;;;3.15;91.67;97851.46;108255;1262;37601;-73
2023/01/18 11:08:21;;;;;;;41.80;8.80;;;;;;;3.15;91.57;97844.89;108391;1271;37114;-73
2023/01/18 11:11:01;;;;;;;45.50;9.20;;;;;;;3.15;91.29;97840.77;108490;1262;37506;-75
2023/01/18 11:13:44;;;;;;;140.30;24.80;;;;;;;3.13;91.36;97842.74;108410;1278;38259;-75
2023/01/18 11:16:27;;;;;;;181.20;28.40;;;;;;;3.12;91.11;97845.91;108403;1261;36988;-71
2023/01/18 11:19:05;;;;;;;100.90;17.60;;;;;;;3.09;91.03;97840.34;108452;1261;36834;-72
2023/01/18 11:21:47;;;;;;;119.80;20.60;;;;;;;3.10;91.42;97840.33;108456;1269;37042;-75
2023/01/18 11:24:27;;;;;;;57.80;11.20;;;;;;;3.09;91.19;97841.38;108437;1273;37182;-76
2023/01/18 11:27:01;;;;;;;31.60;7.20;;;;;;;3.09;91.09;97836.56;108424;1269;37099;-74
2023/01/18 11:29:35;;;;;;;19.50;5.80;;;;;;;3.10;91.43;97834.61;108461;1279;38524;-73
2023/01/18 11:32:22;;;;;;;12.90;4.60;;;;;;;3.13;91.13;97840.18;108417;1261;36960;-75
2023/01/18 11:34:55;;;;;;;12.50;4.60;;;;;;;3.13;91.10;97838.29;108430;1278;37113;-74
2023/01/18 11:37:33;;;;;;;9.00;4.20;;;;;;;3.14;91.14;97833.39;108438;1263;38449;-74
2023/01/18 11:40:28;;;;;;;14.70;4.90;;;;;;;3.15;91.01;97834.44;108463;1260;37221;-75
2023/01/18 11:43:02;;;;;;;25.80;7.90;;;;;;;3.16;91.30;97832.64;108455;1255;38581;-75
2023/01/18 11:45:39;;;;;;;32.90;12.20;;;;;;;3.15;91.03;97835.93;108428;1262;37420;-73
2023/01/18 11:48:16;;;;;;;10.10;4.40;;;;;;;3.14;91.14;97834.61;108413;1269;37100;-73
2023/01/18 11:50:54;;;;;;;6.30;4.40;;;;;;;3.15;90.81;97830.64;108407;1255;36347;-74
2023/01/18 11:53:44;;;;;;;5.60;4.20;;;;;;;3.15;90.92;97830.98;108472;1267;37631;-74
2023/01/18 11:56:25;;;;;;;;;;;;;;;3.15;90.84;97834.77;108616;1278;37008;-73
2023/01/18 11:59:17;;;;;;;13.50;5.10;;;;;;;3.08;90.85;97840.40;108389;1278;175086;-75
2023/01/18 12:02:03;;;;;;;25.10;6.70;;;;;;;3.06;91.01;97838.97;108510;1259;37041;-77
2023/01/18 12:04:49;;;;;;;63.90;10.10;;;;;;;3.04;90.78;97833.73;108532;1267;37059;-75
2023/01/18 12:07:33;;;;;;;39.30;7.90;;;;;;;3.05;91.02;97828.66;108547;1278;37609;-74
2023/01/18 12:10:25;;;;;;;60.40;10.50;;;;;;;3.09;91.05;97823.80;108319;1271;37008;-74
2023/01/18 12:13:20;;;;;;;68.00;10.40;;;;;;;3.09;90.62;97822.63;108439;1261;37213;-75
2023/01/18 12:16:14;;;;;;;73.00;12.50;;;;;;;3.09;90.78;97822.44;108431;1269;36489;-76
2023/01/18 12:19:20;;;;;;;44.00;10.00;;;;;;;3.11;90.72;97824.78;108490;1278;37175;-76
2023/01/18 12:22:37;;;;;;;65.10;11.00;;;;;;;3.12;90.88;97826.96;108454;1278;37012;-75
2023/01/18 12:25:28;;;;;;;61.90;9.70;;;;;;;3.12;90.51;97831.78;108509;1278;37598;-73
2023/01/18 12:28:12;;;;;;;28.30;6.40;;;;;;;3.17;90.67;97838.13;108493;1278;37032;-73
2023/01/18 12:30:58;;;;;;;23.60;5.30;;;;;;;3.18;90.51;97840.31;108532;1278;36972;-71